createdAt,value
2017-03-07T13:25:35.743Z,1007.1
2017-03-07T13:26:34.695Z,1007.1
2017-03-07T13:42:37.219Z,1007.3
2017-03-07T13:45:09.667Z,1007.3
2017-03-07T13:47:42.147Z,1007.3
2017-03-07T13:50:14.610Z,1007.3
2017-03-07T13:52:47.097Z,1007.3
2017-03-07T13:55:19.552Z,1007.3
2017-03-07T13:57:52.063Z,1007.4
2017-03-07T14:00:24.533Z,1007.4
2017-03-07T14:02:57.423Z,1007.5
2017-03-07T14:05:29.957Z,1007.5
2017-03-07T14:08:02.504Z,1007.6
2017-03-07T14:10:35.006Z,1007.6
2017-03-07T14:13:07.560Z,1007.5
2017-03-07T14:15:40.069Z,1007.6
2017-03-07T14:18:12.576Z,1007.6
2017-03-07T14:20:45.189Z,1007.6
2017-03-07T14:23:17.900Z,1007.7
2017-03-07T14:25:50.616Z,1007.7
2017-03-07T14:28:23.327Z,1007.7
2017-03-07T14:30:55.957Z,1007.8
2017-03-07T14:33:29.564Z,1007.8
2017-03-07T14:36:02.410Z,1007.9
2017-03-07T14:38:35.349Z,1007.9
2017-03-07T14:41:08.224Z,1007.8
2017-03-07T14:43:41.682Z,1007.8
2017-03-07T14:46:14.399Z,1007.9
2017-03-07T14:48:47.442Z,1007.9
2017-03-07T14:51:20.744Z,1007.9
2017-03-07T14:53:54.144Z,1007.9
2017-03-07T14:56:28.575Z,1007.9
2017-03-07T14:59:02.123Z,1008
2017-03-07T15:01:35.965Z,1008
2017-03-07T15:04:09.798Z,1008
2017-03-07T15:06:44.411Z,1008
2017-03-07T15:09:18.447Z,1008.1
2017-03-07T15:11:51.646Z,1008.1
2017-03-07T15:14:25.022Z,1008.1
2017-03-07T15:16:58.095Z,1008.1
2017-03-07T15:19:32.813Z,1008.2
2017-03-07T15:22:06.233Z,1008.2
2017-03-07T15:24:38.708Z,1008.2
2017-03-07T15:27:11.179Z,1008.2
2017-03-07T15:29:43.682Z,1008.2
2017-03-07T15:32:16.155Z,1008.2
2017-03-07T15:34:49.497Z,1008.2
2017-03-07T15:37:21.974Z,1008.3
2017-03-07T15:39:54.436Z,1008.3
2017-03-07T15:42:27.314Z,1008.4
2017-03-07T15:45:00.252Z,1008.4
2017-03-07T15:47:32.783Z,1008.4
2017-03-07T15:50:05.267Z,1008.4
2017-03-07T15:52:37.728Z,1008.5
2017-03-07T15:55:10.199Z,1008.5
2017-03-07T15:57:42.689Z,1008.5
2017-03-07T16:00:15.161Z,1008.5
2017-03-07T16:02:48.029Z,1008.5
2017-03-07T16:05:20.507Z,1008.5
2017-03-07T16:07:53.000Z,1008.6
2017-03-07T16:10:25.516Z,1008.6
2017-03-07T16:12:57.988Z,1008.7
2017-03-07T16:15:30.427Z,1008.7
2017-03-07T16:18:02.894Z,1008.8
2017-03-07T16:20:35.801Z,1008.8
2017-03-07T16:23:09.680Z,1008.8
2017-03-07T16:25:42.777Z,1008.8
2017-03-07T16:28:22.370Z,1008.8
2017-03-07T16:30:57.237Z,1008.9
2017-03-07T16:33:30.758Z,1008.9
2017-03-07T16:36:04.827Z,1008.9
2017-03-07T16:38:38.495Z,1009
2017-03-07T16:41:11.854Z,1008.9
2017-03-07T16:43:45.314Z,1009
2017-03-07T16:46:20.610Z,1008.9
2017-03-07T16:48:54.283Z,1009
2017-03-07T16:51:27.521Z,1009
2017-03-07T16:54:00.455Z,1009
2017-03-07T16:56:33.861Z,1009
2017-03-07T16:59:06.786Z,1009.1
2017-03-07T17:01:39.687Z,1009.1
2017-03-07T17:04:12.584Z,1009.1
2017-03-07T17:06:45.296Z,1009.2
2017-03-07T17:09:19.307Z,1009.2
2017-03-07T17:11:52.386Z,1009.2
2017-03-07T17:14:25.584Z,1009.2
2017-03-07T17:16:58.509Z,1009.2
2017-03-07T17:19:31.545Z,1009.2
2017-03-07T17:22:04.657Z,1009.3
2017-03-07T17:24:37.823Z,1009.3
2017-03-07T17:27:11.540Z,1009.4
2017-03-07T17:29:44.221Z,1009.4
2017-03-07T17:32:17.094Z,1009.4
2017-03-07T17:34:49.983Z,1009.5
2017-03-07T17:37:22.893Z,1009.5
2017-03-07T17:39:55.954Z,1009.5
2017-03-07T17:42:29.190Z,1009.5
2017-03-07T17:45:01.915Z,1009.6
2017-03-07T17:47:36.079Z,1009.6
2017-03-07T17:50:08.720Z,1009.7
2017-03-07T17:52:41.754Z,1009.6
2017-03-07T17:55:14.694Z,1009.7
2017-03-07T17:57:47.312Z,1009.7
2017-03-07T18:00:20.158Z,1009.7
2017-03-07T18:02:52.912Z,1009.6
2017-03-07T18:05:26.336Z,1009.7
2017-03-07T18:07:59.908Z,1009.8
2017-03-07T18:10:33.471Z,1009.7
2017-03-07T18:13:06.716Z,1009.8
2017-03-07T18:15:39.176Z,1009.7
2017-03-07T18:18:12.370Z,1009.7
2017-03-07T18:20:45.265Z,1009.7
2017-03-07T18:23:17.725Z,1009.7
2017-03-07T18:25:50.197Z,1009.8
2017-03-07T18:28:22.660Z,1009.8
2017-03-07T18:30:55.127Z,1009.9
2017-03-07T18:33:27.990Z,1009.9
2017-03-07T18:36:00.615Z,1009.9
2017-03-07T18:38:33.104Z,1009.9
2017-03-07T18:41:05.629Z,1009.9
2017-03-07T18:43:38.249Z,1009.9
2017-03-07T18:46:10.708Z,1009.9
2017-03-07T18:48:43.175Z,1009.9
2017-03-07T18:51:15.635Z,1009.9
2017-03-07T18:53:48.339Z,1009.9
2017-03-07T18:56:20.899Z,1009.8
2017-03-07T18:58:53.795Z,1009.9
2017-03-07T19:01:26.256Z,1009.9
2017-03-07T19:03:58.702Z,1009.9
2017-03-07T19:06:31.168Z,1009.9
2017-03-07T19:09:03.629Z,1009.9
2017-03-07T19:11:36.534Z,1009.9
2017-03-07T19:14:08.992Z,1010
2017-03-07T19:16:41.463Z,1009.9
2017-03-07T19:19:14.391Z,1009.9
2017-03-07T19:21:46.874Z,1010
2017-03-07T19:24:19.359Z,1010
2017-03-07T19:26:52.315Z,1010
2017-03-07T19:29:24.793Z,1010
2017-03-07T19:31:57.659Z,1010
2017-03-07T19:34:30.136Z,1010.1
2017-03-07T19:37:02.597Z,1010.2
2017-03-07T19:39:35.092Z,1010.2
2017-03-07T19:42:07.585Z,1010.2
2017-03-07T19:44:40.057Z,1010.2
2017-03-07T19:47:12.523Z,1010.2
2017-03-07T19:49:45.039Z,1010.2
2017-03-07T19:52:17.495Z,1010.2
2017-03-07T19:54:50.695Z,1010.2
2017-03-07T19:57:23.146Z,1010.2
2017-03-07T19:59:55.675Z,1010.2
2017-03-07T20:02:28.143Z,1010.2
2017-03-07T20:05:00.604Z,1010.2
2017-03-07T20:07:34.034Z,1010.2
2017-03-07T20:10:06.497Z,1010.2
2017-03-07T20:12:38.960Z,1010.3
2017-03-07T20:15:11.414Z,1010.4
2017-03-07T20:17:43.868Z,1010.4
2017-03-07T20:20:16.783Z,1010.4
2017-03-07T20:22:49.668Z,1010.4
2017-03-07T20:25:23.209Z,1010.4
2017-03-07T20:27:56.043Z,1010.5
2017-03-07T20:30:29.126Z,1010.5
2017-03-07T20:33:02.492Z,1010.5
2017-03-07T20:35:34.977Z,1010.6
2017-03-07T20:38:07.460Z,1010.6
2017-03-07T20:40:40.362Z,1010.6
2017-03-07T20:43:12.824Z,1010.6
2017-03-07T20:45:45.316Z,1010.7
2017-03-07T20:48:17.757Z,1010.7
2017-03-07T20:50:50.561Z,1010.7
2017-03-07T20:53:23.034Z,1010.8
2017-03-07T20:55:55.499Z,1010.8
2017-03-07T20:58:28.804Z,1010.8
2017-03-07T21:01:01.551Z,1010.8
2017-03-07T21:03:34.510Z,1010.7
2017-03-07T21:06:06.991Z,1010.8
2017-03-07T21:08:39.914Z,1010.7
2017-03-07T21:11:12.495Z,1010.7
2017-03-07T21:13:45.410Z,1010.8
2017-03-07T21:16:18.173Z,1010.8
2017-03-07T21:18:50.629Z,1010.8
2017-03-07T21:21:23.142Z,1010.8
2017-03-07T21:23:55.609Z,1010.9
2017-03-07T21:26:28.507Z,1010.9
2017-03-07T21:29:01.390Z,1010.9
2017-03-07T21:31:33.872Z,1010.9
2017-03-07T21:34:06.322Z,1010.9
2017-03-07T21:36:38.862Z,1010.9
2017-03-07T21:39:11.326Z,1011
2017-03-07T21:41:44.771Z,1011.1
2017-03-07T21:44:17.224Z,1011.1
2017-03-07T21:46:49.706Z,1011.1
2017-03-07T21:49:22.163Z,1011.2
2017-03-07T21:51:54.662Z,1011.2
2017-03-07T21:54:28.150Z,1011.2
2017-03-07T21:57:00.603Z,1011.2
2017-03-07T21:59:33.242Z,1011.2
2017-03-07T22:02:05.717Z,1011.3
2017-03-07T22:04:38.177Z,1011.3
2017-03-07T22:07:10.622Z,1011.4
2017-03-07T22:09:43.526Z,1011.4
2017-03-07T22:12:16.010Z,1011.5
2017-03-07T22:14:48.515Z,1011.6
2017-03-07T22:17:20.966Z,1011.5
2017-03-07T22:19:53.857Z,1011.5
2017-03-07T22:22:26.370Z,1011.6
2017-03-07T22:24:58.836Z,1011.7
2017-03-07T22:27:31.296Z,1011.7
2017-03-07T22:30:03.766Z,1011.8
2017-03-07T22:32:36.240Z,1011.8
2017-03-07T22:35:08.730Z,1011.9
2017-03-07T22:37:41.181Z,1011.8
2017-03-07T22:40:13.685Z,1011.9
2017-03-07T22:42:46.138Z,1011.9
2017-03-07T22:45:19.031Z,1012
2017-03-07T22:47:51.485Z,1012
2017-03-07T22:50:23.967Z,1012
2017-03-07T22:52:56.866Z,1012
2017-03-07T22:55:29.347Z,1012
2017-03-07T22:58:01.824Z,1012
2017-03-07T23:00:34.281Z,1012
2017-03-07T23:03:07.173Z,1012
2017-03-07T23:05:39.668Z,1012
2017-03-07T23:08:12.980Z,1012
2017-03-07T23:10:45.434Z,1011.9
2017-03-07T23:13:17.911Z,1011.9
2017-03-07T23:15:50.809Z,1011.9
2017-03-07T23:18:23.252Z,1011.9
2017-03-07T23:20:55.715Z,1011.9
2017-03-07T23:23:28.183Z,1011.9
2017-03-07T23:26:00.659Z,1012
2017-03-07T23:28:33.132Z,1012
2017-03-07T23:31:05.568Z,1012.1
2017-03-07T23:33:38.041Z,1012.1
2017-03-07T23:36:10.566Z,1012.1
2017-03-07T23:38:44.339Z,1012.1
2017-03-07T23:41:16.848Z,1012.1
2017-03-07T23:43:49.343Z,1012.1
2017-03-07T23:46:21.786Z,1012
2017-03-07T23:48:54.282Z,1012
2017-03-07T23:51:27.602Z,1011.9
2017-03-07T23:54:00.486Z,1012
2017-03-07T23:56:33.857Z,1012
2017-03-07T23:59:06.746Z,1011.9
